Time;durP1;ratioP1;P1;durP2;ratioP2;P2;SDS_P1;SDS_P2;PMS_P1;PMS_P2;Temp;Humidity;BMP_temperature;BMP_pressure;BME280_temperature;BME280_humidity;BME280_pressure;Samples;Min_cycle;Max_cycle;Signal;HPM_P1;HPM_P2
2022/03/24 05:11:39;;;;;;;76.10;29.98;;;;;;;3.00;50.65;96005.28;5539467;22;18932355;-92
2022/03/24 05:14:24;;;;;;;81.25;29.02;;;;;;;3.04;49.77;96009.94;6372708;22;20067;-93
2022/03/24 05:17:36;;;;;;;81.20;28.13;;;;;;;-1.45;50.00;95312.16;6369901;22;20006;-92
2022/03/24 05:23:42;;;;;;;74.82;28.20;;;;;;;1.04;50.15;95689.66;6343981;22;20010;-89
2022/03/24 05:26:26;;;;;;;84.22;30.92;;;;;;;-0.49;50.19;95439.31;6329187;22;20010;-91
2022/03/24 05:45:58;;;;;;;94.15;32.28;;;;;;;1.96;49.72;95751.44;6401052;22;20285;-82
2022/03/24 05:48:24;;;;;;;120.25;34.60;;;;;;;1.88;50.22;95751.66;6363410;22;20248;-83
2022/03/24 05:50:50;;;;;;;90.75;32.35;;;;;;;2.09;49.63;95768.88;6369097;22;20121;-83
2022/03/24 05:53:16;;;;;;;85.75;31.35;;;;;;;3.24;50.30;95988.88;6368191;22;20024;-82
2022/03/24 05:55:42;;;;;;;91.35;32.38;;;;;;;3.42;50.09;95994.28;6397501;22;20033;-82
2022/03/24 05:58:07;;;;;;;81.93;33.40;;;;;;;2.57;49.84;95840.00;6368112;22;20047;-82
2022/03/24 06:00:38;;;;;;;86.10;34.92;;;;;;;0.85;49.76;95585.19;6366789;22;20018;-83
2022/03/24 06:03:07;;;;;;;88.82;33.10;;;;;;;1.03;50.07;95591.38;6364158;22;20291;-83
2022/03/24 06:05:33;;;;;;;86.97;35.13;;;;;;;1.35;50.21;95641.16;6363558;22;20070;-83
2022/03/24 06:08:03;;;;;;;99.80;37.47;;;;;;;3.32;50.32;95959.00;6365766;22;20006;-82
2022/03/24 06:10:30;;;;;;;106.03;39.55;;;;;;;3.80;49.55;95998.72;6361820;22;20126;-83
2022/03/24 06:12:57;;;;;;;117.53;44.42;;;;;;;3.79;49.63;96005.78;6365750;22;20021;-84
2022/03/24 06:15:22;;;;;;;94.35;40.05;;;;;;;3.73;49.37;95977.75;6362980;22;20006;-85
2022/03/24 06:17:48;;;;;;;100.70;38.47;;;;;;;3.32;49.77;95914.44;6393786;22;20020;-83
2022/03/24 06:20:15;;;;;;;91.45;34.67;;;;;;;2.53;48.86;95776.78;6392941;22;20006;-84
2022/03/24 06:22:52;;;;;;;90.20;33.30;;;;;;;3.54;48.83;95907.03;6364627;22;20373;-83
2022/03/24 06:25:22;;;;;;;83.97;33.10;;;;;;;1.98;48.22;95639.56;6363270;22;20013;-84
2022/03/24 06:27:49;;;;;;;71.03;30.30;;;;;;;2.63;48.04;95739.66;6366388;22;20009;-84
2022/03/24 06:30:16;;;;;;;77.10;31.48;;;;;;;3.95;47.98;95928.38;6365822;22;20010;-84
2022/03/24 06:32:42;;;;;;;90.72;32.65;;;;;;;2.74;47.98;95752.09;6369507;22;20048;-84
2022/03/24 06:35:08;;;;;;;68.43;31.25;;;;;;;4.32;47.90;96004.59;6399505;22;20102;-85
2022/03/24 06:37:40;;;;;;;73.18;29.23;;;;;;;1.22;47.78;95521.78;6367839;22;20442;-85
2022/03/24 06:40:10;;;;;;;84.88;31.08;;;;;;;-0.56;47.81;95276.19;6374694;22;20006;-85
2022/03/24 06:42:47;;;;;;;70.97;28.63;;;;;;;1.45;47.44;95526.56;6374438;22;20070;-85
2022/03/24 06:45:14;;;;;;;80.82;29.58;;;;;;;1.61;47.36;95554.00;6371702;22;20346;-85
2022/03/24 06:47:41;;;;;;;71.80;30.00;;;;;;;-0.07;46.91;95262.66;6370460;22;20021;-84
2022/03/24 06:50:10;;;;;;;80.93;32.35;;;;;;;-0.15;47.43;95297.56;6366512;22;20014;-85
2022/03/24 06:52:36;;;;;;;81.45;34.35;;;;;;;4.20;47.42;95954.59;6360426;22;20444;-85
2022/03/24 06:55:02;;;;;;;83.53;33.83;;;;;;;-0.43;46.60;95184.97;6355440;22;20120;-84
2022/03/24 06:57:28;;;;;;;83.30;35.55;;;;;;;2.65;47.18;95695.75;6359365;22;20014;-86
2022/03/24 06:59:53;;;;;;;81.47;32.20;;;;;;;2.83;46.79;95697.63;6354572;22;20024;-84
2022/03/24 07:02:19;;;;;;;77.50;33.17;;;;;;;1.47;46.47;95520.09;6357895;22;20037;-84
2022/03/24 07:04:44;;;;;;;71.00;31.55;;;;;;;4.71;46.61;95956.19;6357856;22;20010;-84
2022/03/24 07:07:10;;;;;;;68.60;30.60;;;;;;;3.98;46.72;95854.44;6357484;22;20539;-84
2022/03/24 07:09:36;;;;;;;71.72;29.20;;;;;;;4.38;46.22;95875.06;6355886;22;20087;-85
2022/03/24 07:12:01;;;;;;;72.18;27.92;;;;;;;3.97;46.10;95818.72;6359704;22;20057;-84
2022/03/24 07:14:28;;;;;;;68.32;27.88;;;;;;;3.02;45.74;95660.00;6384606;22;20002;-86
2022/03/24 07:16:53;;;;;;;68.03;28.65;;;;;;;4.13;46.14;95838.34;6359393;22;20101;-83
2022/03/24 07:19:19;;;;;;;65.30;27.13;;;;;;;5.10;45.82;95999.66;6357091;22;20048;-84
2022/03/24 07:21:46;;;;;;;66.63;25.55;;;;;;;4.41;46.01;95877.28;6360351;22;20066;-84
2022/03/24 07:24:12;;;;;;;64.28;26.17;;;;;;;4.20;45.78;95841.72;6359361;22;20073;-85
2022/03/24 07:26:38;;;;;;;59.67;25.20;;;;;;;5.09;45.56;95975.19;6359161;22;20006;-84
2022/03/24 07:29:04;;;;;;;63.58;24.17;;;;;;;4.81;45.60;95909.16;6357260;22;20013;-85
2022/03/24 07:31:29;;;;;;;64.05;25.65;;;;;;;4.97;45.66;95913.81;6387338;22;20447;-85
2022/03/24 07:33:57;;;;;;;71.43;24.63;;;;;;;5.40;45.04;95950.53;6363002;22;20577;-84
2022/03/24 07:36:25;;;;;;;63.45;26.20;;;;;;;4.24;45.03;95769.38;6361787;22;20025;-84
2022/03/24 07:38:56;;;;;;;75.35;24.17;;;;;;;5.40;45.04;95963.69;6361803;22;20014;-84
2022/03/24 07:41:22;;;;;;;69.03;23.60;;;;;;;4.92;44.80;95884.78;6356442;22;20116;-84
2022/03/24 07:43:48;;;;;;;60.88;23.73;;;;;;;5.66;44.57;95955.44;6380348;22;20020;-84
2022/03/24 07:46:14;;;;;;;51.53;23.17;;;;;;;4.14;45.34;95740.19;6386850;22;20040;-85
2022/03/24 07:48:40;;;;;;;54.53;22.80;;;;;;;5.64;45.20;95938.28;6361968;22;20014;-86
2022/03/24 07:51:07;;;;;;;58.08;21.35;;;;;;;5.70;44.75;95972.41;6386479;22;20006;-85
2022/03/24 07:53:43;;;;;;;63.70;22.55;;;;;;;4.85;44.56;95806.03;6360620;22;20010;-84
2022/03/24 07:56:09;;;;;;;68.85;22.20;;;;;;;5.72;44.85;95916.91;6394086;22;20391;-85
2022/03/24 07:58:35;;;;;;;61.33;22.98;;;;;;;5.49;44.51;95867.66;6363088;22;20014;-83
2022/03/24 08:01:01;;;;;;;61.05;23.70;;;;;;;5.63;44.82;95911.16;6353135;22;20048;-86
2022/03/24 08:03:26;;;;;;;53.78;22.45;;;;;;;5.57;44.02;95900.72;6363752;22;20021;-84
2022/03/24 08:05:52;;;;;;;49.63;22.90;;;;;;;5.92;43.91;95959.56;6362458;22;20017;-84
2022/03/24 08:08:18;;;;;;;56.45;22.60;;;;;;;6.09;44.50;95952.63;6361226;22;20014;-85
2022/03/24 08:10:46;;;;;;;54.08;22.88;;;;;;;5.62;43.81;95851.66;6390929;22;20038;-84
2022/03/24 08:13:14;;;;;;;74.32;24.58;;;;;;;5.62;44.20;95833.25;6358963;22;20014;-85
2022/03/24 08:15:41;;;;;;;71.15;24.55;;;;;;;6.03;43.73;95914.00;6360385;22;20033;-85
2022/03/24 08:18:09;;;;;;;55.63;22.70;;;;;;;6.59;43.74;95947.72;6359956;22;20422;-83
2022/03/24 08:20:38;;;;;;;69.53;22.77;;;;;;;6.00;42.83;95832.84;6360051;22;20101;-83
2022/03/24 08:23:11;;;;;;;61.38;24.42;;;;;;;5.77;43.18;95772.28;6359374;22;20250;-83
2022/03/24 08:25:38;;;;;;;53.72;23.23;;;;;;;6.31;43.17;95834.34;6363069;22;20045;-84
2022/03/24 08:28:05;;;;;;;72.03;21.48;;;;;;;7.03;42.88;95931.53;6363635;22;20014;-83
2022/03/24 08:30:30;;;;;;;89.68;22.48;;;;;;;7.09;42.15;95933.25;6385655;22;20005;-84
2022/03/24 08:32:57;;;;;;;52.53;19.27;;;;;;;6.87;41.87;95882.94;6360782;22;20490;-84
2022/03/24 08:35:23;;;;;;;53.88;17.38;;;;;;;6.66;41.42;95822.94;6360201;22;20598;-83
2022/03/24 08:37:48;;;;;;;43.70;16.05;;;;;;;7.05;41.17;95847.69;6394579;22;20066;-84
2022/03/24 08:40:15;;;;;;;40.47;16.30;;;;;;;7.26;41.14;95842.56;6364478;22;20014;-87
2022/03/24 08:42:44;;;;;;;43.83;14.30;;;;;;;6.11;40.95;95673.22;6362240;22;20082;-83
2022/03/24 08:45:11;;;;;;;42.83;16.50;;;;;;;5.98;40.46;95590.06;6360236;22;20067;-85
2022/03/24 08:47:37;;;;;;;46.13;14.45;;;;;;;7.48;40.66;95820.78;6363279;22;20074;-84
2022/03/24 08:50:08;;;;;;;39.03;13.57;;;;;;;6.44;39.83;95606.69;6389432;22;20113;-84
2022/03/24 08:52:35;;;;;;;33.78;13.73;;;;;;;8.29;40.30;95888.94;6355201;22;20028;-84
2022/03/24 08:55:01;;;;;;;32.05;12.80;;;;;;;7.71;39.59;95763.34;6390600;22;20036;-85
2022/03/24 08:57:27;;;;;;;31.98;11.32;;;;;;;8.86;39.57;95913.28;6390084;22;20522;-85
2022/03/24 08:59:57;;;;;;;38.33;12.40;;;;;;;8.16;39.09;95762.44;6367568;22;20012;-85
2022/03/24 09:02:35;;;;;;;37.50;12.73;;;;;;;8.99;38.56;95859.25;6363720;22;20016;-84
2022/03/24 09:05:01;;;;;;;31.15;11.93;;;;;;;8.05;38.85;95718.41;6409214;22;20025;-84
2022/03/24 09:07:26;;;;;;;26.85;12.27;;;;;;;8.77;38.93;95803.66;6394451;22;20010;-85
2022/03/24 09:09:52;;;;;;;40.75;11.25;;;;;;;6.76;37.82;95447.00;6387306;22;20033;-85
2022/03/24 09:12:18;;;;;;;30.70;10.52;;;;;;;4.88;37.37;95192.47;6396332;22;20017;-85
2022/03/24 09:14:47;;;;;;;30.45;10.10;;;;;;;5.36;37.24;95236.59;6395709;22;20017;-84
2022/03/24 09:17:22;;;;;;;32.53;11.05;;;;;;;7.44;36.86;95503.78;6393229;22;20013;-84
2022/03/24 09:19:47;;;;;;;28.90;11.55;;;;;;;8.20;37.08;95598.94;6398379;22;20028;-84
2022/03/24 09:22:13;;;;;;;19.20;9.73;;;;;;;5.95;36.00;95232.50;6424530;22;20032;-85
2022/03/24 09:24:38;;;;;;;30.38;10.73;;;;;;;9.24;35.94;95742.25;6391603;22;20010;-85
2022/03/24 09:27:05;;;;;;;21.85;9.63;;;;;;;9.62;35.62;95763.25;6419863;22;20013;-84
2022/03/24 09:29:31;;;;;;;29.73;10.95;;;;;;;6.68;35.53;95252.38;6407760;22;20026;-84
2022/03/24 09:31:57;;;;;;;22.73;9.05;;;;;;;6.32;33.39;95182.69;6351184;22;20016;-85
2022/03/24 09:34:23;;;;;;;20.65;9.13;;;;;;;7.24;33.13;95287.25;6341294;22;20009;-85
2022/03/24 09:36:49;;;;;;;22.75;9.35;;;;;;;9.43;33.68;95605.84;6355569;22;20029;-87
2022/03/24 09:39:30;;;;;;;28.60;8.82;;;;;;;6.94;32.33;95232.38;6352716;22;20013;-87
2022/03/24 09:41:57;;;;;;;16.20;8.63;;;;;;;9.63;31.54;95623.69;6385321;22;20009;-85
2022/03/24 09:44:24;;;;;;;22.75;8.57;;;;;;;9.68;30.71;95624.53;6355353;22;20012;-86
2022/03/24 09:46:50;;;;;;;20.63;8.52;;;;;;;9.64;31.04;95604.91;6388105;22;20160;-86
2022/03/24 09:49:18;;;;;;;21.67;9.07;;;;;;;7.00;31.46;95165.44;6359272;22;20474;-89
2022/03/24 09:51:45;;;;;;;26.17;9.15;;;;;;;10.23;30.79;95615.25;6351292;22;20561;-87
2022/03/24 09:54:12;;;;;;;19.35;8.40;;;;;;;6.77;30.98;95111.22;6358047;22;20040;-86
2022/03/24 09:56:41;;;;;;;25.85;8.70;;;;;;;7.62;31.11;95218.44;6354356;22;20090;-87
2022/03/24 09:59:09;;;;;;;17.42;7.93;;;;;;;10.09;29.80;95584.97;6359883;22;20121;-86
2022/03/24 10:01:36;;;;;;;18.77;8.85;;;;;;;10.06;29.47;95535.94;6360494;22;20002;-87
2022/03/24 10:04:18;;;;;;;22.80;8.00;;;;;;;10.61;28.99;95599.97;6358595;22;20014;-86
2022/03/24 10:07:03;;;;;;;19.90;8.10;;;;;;;8.04;28.92;95213.13;6357797;22;20621;-86
2022/03/24 10:09:46;;;;;;;30.17;8.63;;;;;;;11.99;28.03;95672.16;6384933;22;20251;-86
2022/03/24 10:12:21;;;;;;;24.85;9.15;;;;;;;13.99;26.64;95817.31;6349749;22;20531;-89
2022/03/24 10:15:10;;;;;;;22.33;8.38;;;;;;;12.06;25.11;95416.66;6384809;22;20683;-87
2022/03/24 10:17:52;;;;;;;25.23;8.10;;;;;;;13.74;24.25;95603.16;6355973;22;20439;-87
2022/03/24 10:20:30;;;;;;;15.30;7.82;;;;;;;12.78;23.11;95353.81;6354717;22;20029;-88
2022/03/24 10:23:06;;;;;;;19.02;8.25;;;;;;;15.05;22.87;95666.69;6335237;22;20102;-84
2022/03/24 10:25:34;;;;;;;16.23;7.80;;;;;;;14.44;22.32;95442.56;6357336;22;20013;-87
2022/03/24 10:28:17;;;;;;;19.83;7.85;;;;;;;15.58;21.06;95517.53;6355589;22;20437;-87
2022/03/24 10:30:50;;;;;;;23.10;7.70;;;;;;;15.58;21.06;95517.53;6349898;22;20078;-89
2022/03/24 10:33:47;;;;;;;27.95;8.23;;;;;;;13.64;21.07;95170.78;6353855;22;20510;-86
2022/03/24 10:36:20;;;;;;;22.05;8.63;;;;;;;16.20;21.31;95545.44;6308568;22;20353;-87
2022/03/24 10:39:10;;;;;;;17.75;8.57;;;;;;;14.83;20.76;95188.53;6358664;22;20013;-87
2022/03/24 10:41:39;;;;;;;20.40;8.27;;;;;;;14.46;20.47;95125.53;6355511;22;20112;-85
2022/03/24 10:44:12;;;;;;;18.92;8.30;;;;;;;-143.51;0.00;62207.84;6352540;22;20431;-86
2022/03/24 10:46:43;;;;;;;17.90;7.95;;;;;;;18.25;19.15;95548.97;6354097;22;20015;-86
2022/03/24 10:49:28;;;;;;;15.15;7.07;;;;;;;19.67;18.99;95753.63;6355860;22;20347;-86
2022/03/24 10:51:54;;;;;;;16.38;7.55;;;;;;;15.28;20.00;95222.25;6356070;22;20010;-86
2022/03/24 10:54:54;;;;;;;16.80;7.60;;;;;;;15.64;19.86;95273.03;6357029;22;20090;-86
2022/03/24 10:57:30;;;;;;;19.70;8.23;;;;;;;14.88;20.17;95111.78;6358620;22;20314;-85
2022/03/24 11:00:09;;;;;;;13.13;7.00;;;;;;;16.20;19.37;95251.09;6355104;22;20042;-84
2022/03/24 11:02:36;;;;;;;15.07;7.53;;;;;;;18.00;18.62;95478.00;6354685;22;20010;-87
2022/03/24 11:05:22;;;;;;;23.65;8.02;;;;;;;18.49;18.42;95559.28;6352353;22;20024;-86
2022/03/24 11:07:54;;;;;;;18.05;7.50;;;;;;;17.72;18.92;95479.38;6348192;22;20003;-86
2022/03/24 11:10:22;;;;;;;20.75;7.30;;;;;;;18.00;18.53;95456.53;6351441;22;20014;-85
2022/03/24 11:12:51;;;;;;;18.88;8.00;;;;;;;19.68;18.84;95726.41;6344927;22;20029;-85
2022/03/24 11:15:20;;;;;;;26.30;7.53;;;;;;;17.38;18.94;95433.63;6352873;22;20042;-85
2022/03/24 11:18:15;;;;;;;17.67;7.68;;;;;;;15.19;18.89;95093.16;6356236;22;20318;-86
2022/03/24 11:20:51;;;;;;;15.40;7.60;;;;;;;17.15;19.44;95400.75;6352111;22;20011;-85
2022/03/24 11:23:22;;;;;;;12.70;7.55;;;;;;;19.17;19.04;95714.47;6352384;22;20072;-84
2022/03/24 11:25:53;;;;;;;34.35;8.00;;;;;;;17.64;19.17;95477.44;6356699;22;20025;-86
2022/03/24 11:28:23;;;;;;;21.52;7.78;;;;;;;14.68;19.55;95043.63;6346575;22;20002;-85
2022/03/24 11:30:51;;;;;;;16.92;7.32;;;;;;;18.65;19.10;95689.38;6351371;22;20142;-85
2022/03/24 11:33:23;;;;;;;14.23;6.32;;;;;;;16.63;18.96;95392.44;6351924;22;20018;-84
2022/03/24 11:35:50;;;;;;;23.52;7.03;;;;;;;16.21;18.74;95241.97;6348754;22;20321;-85
2022/03/24 11:38:15;;;;;;;17.50;7.85;;;;;;;17.68;18.75;95379.97;6346606;22;20049;-85
2022/03/24 11:40:50;;;;;;;20.58;6.88;;;;;;;15.37;18.40;95001.34;6347036;22;19994;-86
2022/03/24 11:43:19;;;;;;;14.00;6.40;;;;;;;19.67;18.23;95644.09;6348724;22;20041;-84
2022/03/24 11:46:00;;;;;;;14.52;6.35;;;;;;;18.24;18.25;95442.69;6345060;22;20010;-85
2022/03/24 11:48:40;;;;;;;17.15;6.80;;;;;;;18.47;17.96;95491.66;6350948;22;20006;-84
2022/03/24 11:51:16;;;;;;;16.33;7.27;;;;;;;16.55;18.61;95144.19;6345536;22;20361;-86
2022/03/24 11:53:42;;;;;;;20.30;6.43;;;;;;;18.54;18.63;95435.56;6351272;22;20022;-84
2022/03/24 11:56:08;;;;;;;24.92;7.30;;;;;;;20.35;18.04;95653.09;6351603;22;20034;-84
2022/03/24 11:58:44;;;;;;;22.30;7.55;;;;;;;17.95;18.25;95295.72;6350804;22;20465;-87
2022/03/24 12:01:23;;;;;;;21.65;8.10;;;;;;;20.50;17.96;95657.16;6346218;22;20082;-85
2022/03/24 12:03:59;;;;;;;24.90;7.05;;;;;;;19.68;17.87;95591.84;6352761;22;20787;-85
2022/03/24 12:06:48;;;;;;;18.85;7.00;;;;;;;19.97;17.51;95661.91;6346596;22;20105;-85
2022/03/24 12:09:22;;;;;;;13.95;6.25;;;;;;;20.18;16.17;95648.53;6352194;22;20549;-85
2022/03/24 12:12:03;;;;;;;15.90;6.28;;;;;;;20.58;16.10;95640.94;6351429;22;20046;-86
2022/03/24 12:14:31;;;;;;;19.08;6.70;;;;;;;20.71;16.64;95639.13;6352244;22;20015;-85
2022/03/24 12:17:01;;;;;;;14.75;6.65;;;;;;;20.13;16.72;95534.84;6338243;22;20075;-85
2022/03/24 12:19:36;;;;;;;17.70;6.80;;;;;;;20.77;16.78;95622.41;6348819;22;20174;-85
2022/03/24 12:22:30;;;;;;;16.67;5.72;;;;;;;20.46;14.98;95624.66;6349395;22;20010;-85
2022/03/24 12:25:08;;;;;;;10.18;5.57;;;;;;;20.76;15.77;95628.91;6351796;22;20010;-84
2022/03/24 12:27:55;;;;;;;12.25;5.45;;;;;;;20.24;15.03;95525.25;6351715;22;20009;-84
2022/03/24 12:30:24;;;;;;;16.52;6.03;;;;;;;18.60;16.02;95302.75;6350183;22;20030;-83
2022/03/24 12:33:12;;;;;;;17.60;6.80;;;;;;;20.72;16.49;95579.50;6351935;22;20163;-83
2022/03/24 12:35:49;;;;;;;5.60;3.72;;;;;;;21.14;11.74;95617.22;6349828;22;20012;-85
2022/03/24 12:38:33;;;;;;;7.95;3.28;;;;;;;21.63;11.38;95620.97;6346914;22;20077;-85
2022/03/24 12:41:11;;;;;;;12.43;3.15;;;;;;;21.79;9.97;95611.13;6349613;22;20595;-85
2022/03/24 12:43:59;;;;;;;7.25;3.17;;;;;;;22.08;9.98;95591.28;6345124;22;20092;-83
2022/03/24 12:46:35;;;;;;;6.05;2.80;;;;;;;22.18;9.76;95606.25;6346889;22;20480;-84
2022/03/24 12:49:13;;;;;;;8.23;3.30;;;;;;;22.67;9.62;95598.91;6351918;22;20025;-85
2022/03/24 12:52:01;;;;;;;7.13;3.35;;;;;;;22.71;10.24;95597.91;6350903;22;20075;-86
2022/03/24 12:54:30;;;;;;;12.35;3.72;;;;;;;21.63;10.10;95485.22;6345479;22;20091;-83
2022/03/24 12:57:25;;;;;;;5.75;3.08;;;;;;;22.01;10.06;95603.75;6346747;22;20018;-84
2022/03/24 12:59:51;;;;;;;14.65;4.03;;;;;;;22.15;10.96;95599.59;6347336;22;20349;-85
2022/03/24 13:02:20;;;;;;;12.90;4.97;;;;;;;22.11;11.80;95585.22;6348650;22;20067;-85
2022/03/24 13:04:56;;;;;;;13.25;4.40;;;;;;;21.85;11.18;95587.38;6348724;22;20507;-85
2022/03/24 13:07:27;;;;;;;10.18;3.70;;;;;;;21.95;10.89;95586.97;6346413;22;20241;-85
2022/03/24 13:10:06;;;;;;;10.55;4.60;;;;;;;21.73;11.51;95558.47;6355574;22;20660;-85
2022/03/24 13:12:33;;;;;;;17.05;4.28;;;;;;;19.67;11.36;95253.16;6352215;22;20089;-82
2022/03/24 13:15:01;;;;;;;9.85;3.58;;;;;;;21.32;11.52;95507.31;6357213;22;20018;-85
2022/03/24 13:17:29;;;;;;;11.00;3.55;;;;;;;21.64;10.80;95576.66;6352510;22;20010;-83
2022/03/24 13:20:00;;;;;;;12.38;4.32;;;;;;;21.63;11.00;95526.50;6351689;22;20006;-83
2022/03/24 13:22:28;;;;;;;11.85;3.92;;;;;;;20.46;11.47;95351.78;6351571;22;20036;-85
2022/03/24 13:25:01;;;;;;;10.23;4.32;;;;;;;18.52;11.68;95024.22;6358227;22;20003;-85
2022/03/24 13:27:32;;;;;;;16.92;4.45;;;;;;;18.13;11.35;94918.06;6350085;22;20029;-86
2022/03/24 13:29:58;;;;;;;17.67;4.38;;;;;;;19.06;11.62;95102.25;6352989;22;20139;-85
2022/03/24 13:33:06;;;;;;;;;;;;;;;;;;;;;
2022/03/24 13:35:38;;;;;;;8.20;4.03;;;;;;;18.51;11.84;95028.81;6348106;22;20018;-86
2022/03/24 13:38:21;;;;;;;6.47;4.30;;;;;;;20.02;11.96;95247.16;6356687;22;20443;-84
2022/03/24 13:41:00;;;;;;;14.68;4.38;;;;;;;18.29;11.96;94990.75;6354773;22;20013;-86
2022/03/24 13:43:40;;;;;;;;;;;;;;;;;;;;;
2022/03/24 13:46:19;;;;;;;14.05;3.83;;;;;;;18.71;11.34;95010.34;6356991;22;20558;-84
2022/03/24 13:49:34;;;;;;;9.57;4.00;;;;;;;18.25;11.86;95020.13;6357462;22;20688;-83
2022/03/24 13:52:03;;;;;;;13.90;4.63;;;;;;;20.12;11.84;95305.19;6343791;22;20114;-84
2022/03/24 13:54:34;;;;;;;10.63;4.13;;;;;;;17.53;12.36;94921.09;6352578;22;20101;-84
2022/03/24 13:57:33;;;;;;;;;;;;;;;;;;;;;
2022/03/24 14:00:06;;;;;;;14.50;6.05;;;;;;;17.80;15.19;95078.13;6359958;22;20086;-83
2022/03/24 14:02:42;;;;;;;14.82;5.75;;;;;;;18.32;15.40;95151.94;6351507;22;20084;-83
2022/03/24 14:05:19;;;;;;;16.80;6.43;;;;;;;18.21;15.41;95191.00;6337242;22;20025;-83
2022/03/24 14:08:01;;;;;;;21.85;7.07;;;;;;;16.51;16.08;94932.53;6353967;22;20424;-84
2022/03/24 14:10:53;;;;;;;15.45;6.57;;;;;;;19.26;15.80;95295.81;6323053;22;20029;-82
2022/03/24 14:13:27;;;;;;;16.23;6.65;;;;;;;17.68;16.34;95089.53;6355214;22;20122;-85
2022/03/24 14:16:13;;;;;;;11.48;4.38;;;;;;;20.92;12.92;95509.72;6354683;22;20298;-84
2022/03/24 14:18:47;;;;;;;10.30;4.00;;;;;;;19.66;12.64;95287.34;6356402;22;20021;-84
2022/03/24 14:21:17;;;;;;;8.60;3.65;;;;;;;19.17;12.54;95205.56;6357237;22;20417;-83
2022/03/24 14:23:49;;;;;;;15.23;7.93;;;;;;;19.03;14.84;95227.31;6352237;22;20021;-85
2022/03/24 14:26:18;;;;;;;21.58;6.55;;;;;;;19.31;15.51;95276.00;6349156;22;20107;-85
2022/03/24 14:28:45;;;;;;;14.90;7.00;;;;;;;18.69;16.08;95259.75;6348827;22;20006;-85
2022/03/24 14:31:16;;;;;;;24.08;8.25;;;;;;;20.26;16.26;95523.03;6352232;22;20166;-83
2022/03/24 14:33:46;;;;;;;;;;;;;;;20.48;16.27;95506.59;6351190;22;20018;-84
2022/03/24 14:36:12;;;;;;;17.55;6.78;;;;;;;17.32;16.45;95034.38;6326495;22;20348;-85
2022/03/24 14:38:38;;;;;;;20.15;7.07;;;;;;;16.36;16.45;94913.50;6352337;22;20027;-82
2022/03/24 14:41:04;;;;;;;21.20;8.02;;;;;;;20.07;16.44;95501.91;6351331;22;20017;-82
2022/03/24 14:43:31;;;;;;;24.95;7.88;;;;;;;18.42;16.67;95306.53;6349574;22;20010;-83
2022/03/24 14:45:56;;;;;;;32.92;8.52;;;;;;;17.85;16.54;95194.06;6347888;22;20389;-85
2022/03/24 14:48:24;;;;;;;15.55;7.32;;;;;;;18.60;16.83;95302.75;6346619;22;20025;-87
2022/03/24 14:50:52;;;;;;;26.83;7.88;;;;;;;18.28;16.75;95312.09;6351886;22;20042;-83
2022/03/24 14:53:18;;;;;;;22.75;8.32;;;;;;;19.14;17.08;95446.25;6353210;22;20689;-83
2022/03/24 14:55:44;;;;;;;31.55;8.93;;;;;;;19.56;17.32;95533.31;6351984;22;20020;-82
2022/03/24 14:58:12;;;;;;;24.70;9.00;;;;;;;19.36;17.29;95468.66;6355187;22;20010;-85
2022/03/24 15:00:39;;;;;;;26.30;7.90;;;;;;;18.84;16.98;95441.91;6349208;22;20018;-86
2022/03/24 15:03:04;;;;;;;20.75;8.05;;;;;;;19.29;17.09;95501.41;6348534;22;20105;-85
2022/03/24 15:05:30;;;;;;;20.17;8.27;;;;;;;18.11;17.05;95337.06;6353973;22;20037;-84
2022/03/24 15:07:56;;;;;;;20.08;8.95;;;;;;;18.54;16.82;95413.31;6351568;22;20330;-81
2022/03/24 15:10:22;;;;;;;19.30;8.10;;;;;;;19.08;17.17;95490.53;6351712;22;20089;-81
2022/03/24 15:12:47;;;;;;;19.27;8.02;;;;;;;18.41;16.99;95397.03;6352271;22;20022;-82
2022/03/24 15:17:58;;;;;;;33.78;8.52;;;;;;;17.89;17.36;95358.69;6357337;22;20102;-83
2022/03/24 15:20:27;;;;;;;22.35;8.68;;;;;;;17.77;17.46;95357.75;6355452;22;20010;-82
2022/03/24 15:22:53;;;;;;;18.73;7.72;;;;;;;17.62;17.25;95351.69;6355939;22;20021;-83
2022/03/24 15:25:19;;;;;;;19.17;8.10;;;;;;;17.43;17.60;95351.16;6355065;22;20042;-84
2022/03/24 15:27:45;;;;;;;15.15;8.55;;;;;;;18.29;17.38;95506.97;6354638;22;20023;-84
2022/03/24 15:30:13;;;;;;;23.13;9.15;;;;;;;13.98;17.83;94887.81;6354659;22;20061;-85
2022/03/24 15:32:40;;;;;;;23.63;8.35;;;;;;;16.35;17.32;95275.88;6355186;22;20089;-84
2022/03/24 15:35:09;;;;;;;21.48;9.40;;;;;;;16.48;17.72;95272.31;6357294;22;20067;-84
2022/03/24 15:37:36;;;;;;;17.45;9.00;;;;;;;14.31;17.69;94913.19;6355575;22;20014;-83
2022/03/24 15:40:09;;;;;;;18.83;8.93;;;;;;;12.55;18.06;94631.81;6355749;22;20069;-85
2022/03/24 15:42:36;;;;;;;26.65;10.05;;;;;;;18.12;18.14;95523.84;6355283;22;20014;-84
2022/03/24 15:45:10;;;;;;;26.67;9.52;;;;;;;17.87;18.17;95507.66;6353272;22;20011;-84
2022/03/24 15:47:36;;;;;;;20.80;10.02;;;;;;;13.09;18.35;94785.28;6356662;22;20028;-83
2022/03/24 15:50:03;;;;;;;23.42;9.30;;;;;;;15.48;18.40;95185.50;6358075;22;20010;-84
2022/03/24 15:52:33;;;;;;;24.85;10.38;;;;;;;14.98;18.17;95105.41;6354546;22;20083;-85
2022/03/24 15:54:58;;;;;;;18.42;9.00;;;;;;;15.94;18.35;95242.13;6352333;22;20014;-84
2022/03/24 15:57:24;;;;;;;28.75;10.95;;;;;;;16.32;18.63;95295.25;6353799;22;20010;-84
2022/03/24 15:59:50;;;;;;;20.73;11.65;;;;;;;16.27;18.75;95311.41;6354783;22;20093;-85
2022/03/24 16:02:21;;;;;;;26.30;12.32;;;;;;;14.54;18.74;95101.59;6357474;22;20034;-85
2022/03/24 16:04:56;;;;;;;29.70;12.63;;;;;;;12.57;19.11;94807.09;6359887;22;20013;-85
2022/03/24 16:10:28;;;;;;;23.63;10.43;;;;;;;14.68;19.64;95267.06;6405586;22;20191;-85
2022/03/24 16:12:56;;;;;;;33.65;10.80;;;;;;;13.58;19.93;95110.66;6393444;22;19998;-86
2022/03/24 16:15:22;;;;;;;19.27;10.32;;;;;;;14.66;20.15;95277.22;6391907;22;20021;-87
2022/03/24 16:18:00;;;;;;;;;;;;;;;;;;;;;
2022/03/24 16:20:36;;;;;;;22.02;9.40;;;;;;;13.89;20.07;95187.09;6423547;22;20061;-85
2022/03/24 16:23:05;;;;;;;30.00;10.93;;;;;;;10.58;20.52;94669.72;6393686;22;20032;-83
2022/03/24 16:25:31;;;;;;;33.55;12.02;;;;;;;13.07;20.53;95061.66;6393587;22;20009;-84
2022/03/24 16:27:56;;;;;;;27.88;12.15;;;;;;;12.04;20.62;94955.53;6390054;22;20089;-84
2022/03/24 16:30:22;;;;;;;23.83;12.63;;;;;;;10.94;20.72;94794.69;6421284;22;20004;-83
2022/03/24 16:32:52;;;;;;;29.95;13.82;;;;;;;14.00;20.76;95273.06;6395820;22;20052;-83
2022/03/24 16:35:18;;;;;;;38.95;15.00;;;;;;;12.87;21.08;95079.84;6397481;22;20597;-85
2022/03/24 16:37:43;;;;;;;25.98;13.23;;;;;;;14.87;21.12;95405.81;6393400;22;20047;-84
2022/03/24 16:40:09;;;;;;;25.35;12.73;;;;;;;14.55;21.09;95367.38;6398102;22;20112;-85
2022/03/24 16:42:35;;;;;;;29.20;9.82;;;;;;;13.00;21.04;95143.78;6424958;22;20501;-85
2022/03/24 16:45:05;;;;;;;26.52;10.45;;;;;;;13.48;21.19;95223.53;6397219;22;20017;-85
2022/03/24 16:47:30;;;;;;;22.27;10.63;;;;;;;13.35;21.61;95275.63;6398442;22;20008;-86
2022/03/24 16:49:56;;;;;;;17.05;9.20;;;;;;;15.31;21.69;95602.97;6399634;22;20013;-86
2022/03/24 16:52:22;;;;;;;27.33;10.20;;;;;;;13.64;21.63;95301.34;6398623;22;20005;-85
2022/03/24 16:54:48;;;;;;;23.15;10.55;;;;;;;9.91;21.65;94711.25;6399644;22;20444;-85
2022/03/24 16:57:14;;;;;;;24.77;10.50;;;;;;;10.70;22.03;94875.06;6400264;22;20013;-84
2022/03/24 16:59:40;;;;;;;24.27;10.80;;;;;;;10.34;21.75;94826.13;6399837;22;20372;-84
2022/03/24 17:02:05;;;;;;;21.40;10.98;;;;;;;12.72;21.76;95236.00;6399327;22;20025;-85
2022/03/24 17:04:31;;;;;;;21.40;11.18;;;;;;;14.26;21.97;95449.47;6399288;22;20108;-84
2022/03/24 17:06:56;;;;;;;26.08;11.70;;;;;;;10.03;22.12;88318.53;6428771;22;20014;-86
2022/03/24 17:09:22;;;;;;;31.70;11.80;;;;;;;11.86;22.08;95113.88;6399383;22;20001;-86
2022/03/24 17:11:47;;;;;;;27.45;11.90;;;;;;;14.21;21.87;95468.22;6402017;22;20412;-85
2022/03/24 17:14:13;;;;;;;27.60;12.23;;;;;;;14.57;21.86;95540.56;6398119;22;20403;-84
2022/03/24 17:16:39;;;;;;;25.77;11.82;;;;;;;13.81;22.20;95442.88;6430660;22;20009;-85
2022/03/24 17:19:05;;;;;;;28.83;12.35;;;;;;;12.80;22.35;95318.94;6400821;22;20546;-84
2022/03/24 17:21:31;;;;;;;31.63;13.27;;;;;;;11.00;22.40;94995.22;6402867;22;20017;-85
2022/03/24 17:23:56;;;;;;;27.58;12.95;;;;;;;14.36;22.54;95548.03;6401781;22;20009;-85